createdAt,value
2023-02-05T00:01:13.875Z,21.7
2023-02-05T00:06:36.704Z,22.4
2023-02-05T00:17:37.717Z,21.1
2023-02-05T00:23:15.455Z,22.1
2023-02-05T00:28:54.462Z,22.3
2023-02-05T00:34:32.798Z,21.6
2023-02-05T00:40:11.187Z,21.8
2023-02-05T00:45:49.165Z,22.3
2023-02-05T00:51:27.262Z,21.9
2023-02-05T00:57:06.797Z,21.5
2023-02-05T01:02:45.173Z,22.1
2023-02-05T01:08:22.244Z,22.4
2023-02-05T01:14:00.504Z,21.6
2023-02-05T01:19:38.511Z,21.6
2023-02-05T01:25:16.811Z,22.3
2023-02-05T01:30:55.480Z,21.9
2023-02-05T01:36:33.887Z,21.4
2023-02-05T01:41:56.332Z,21.9
2023-02-05T01:47:34.643Z,22.4
2023-02-05T01:53:26.922Z,21.7
2023-02-05T01:59:03.987Z,21.6
2023-02-05T02:04:41.264Z,21.8
2023-02-05T02:10:19.846Z,20.9
2023-02-05T02:15:57.703Z,21.8
2023-02-05T02:21:35.174Z,22.4
2023-02-05T02:26:58.328Z,21.7
2023-02-05T02:32:37.065Z,21.7
2023-02-05T02:38:15.087Z,22.3
2023-02-05T02:43:37.501Z,22
2023-02-05T02:49:15.976Z,21.4
2023-02-05T02:54:22.873Z,21.9
2023-02-05T02:59:45.594Z,22.3
2023-02-05T03:05:13.070Z,21.6
2023-02-05T03:10:35.992Z,21.7
2023-02-05T03:15:27.948Z,22.3
2023-02-05T03:20:50.350Z,21.9
2023-02-05T03:26:28.393Z,21.4
2023-02-05T03:31:51.238Z,22
2023-02-05T03:37:29.422Z,22.3
2023-02-05T03:43:07.698Z,21.6
2023-02-05T03:48:45.812Z,21.8
2023-02-05T03:54:13.642Z,21.7
2023-02-05T03:59:51.066Z,20.9
2023-02-05T04:05:13.743Z,21.8
2023-02-05T04:10:36.269Z,22.2
2023-02-05T04:16:00.162Z,21.7
2023-02-05T04:21:23.025Z,21.5
2023-02-05T04:27:00.808Z,22
2023-02-05T04:32:39.611Z,22.1
2023-02-05T04:38:17.955Z,21.5
2023-02-05T04:43:55.677Z,21.8
2023-02-05T04:49:18.093Z,22.2
2023-02-05T04:54:55.549Z,21.8
2023-02-05T05:00:17.986Z,21.6
2023-02-05T05:05:56.067Z,22.1
2023-02-05T05:11:33.405Z,22.2
2023-02-05T05:16:56.536Z,21.6
2023-02-05T05:22:34.922Z,21.8
2023-02-05T05:28:12.589Z,22.5
2023-02-05T05:33:50.827Z,22.1
2023-02-05T05:39:28.803Z,21.7
2023-02-05T05:45:06.606Z,22
2023-02-05T05:50:43.940Z,20.5
2023-02-05T05:56:22.470Z,21
2023-02-05T06:02:00.625Z,21.8
2023-02-05T06:07:38.211Z,22.4
2023-02-05T06:13:18.767Z,22.2
2023-02-05T06:18:41.662Z,21.9
2023-02-05T06:24:19.632Z,22.5
2023-02-05T06:29:58.066Z,22.6
2023-02-05T06:35:36.664Z,21.9
2023-02-05T06:41:28.482Z,22
2023-02-05T06:47:07.143Z,22.4
2023-02-05T06:52:45.686Z,22.1
2023-02-05T06:58:07.615Z,21.6
2023-02-05T07:03:46.241Z,22.2
2023-02-05T07:09:24.873Z,22.6
2023-02-05T07:14:47.357Z,21.6
2023-02-05T07:20:25.714Z,21.6
2023-02-05T07:25:48.176Z,22.4
2023-02-05T07:31:26.648Z,21
2023-02-05T07:37:04.716Z,22.1
2023-02-05T07:42:27.538Z,22.4
2023-02-05T07:47:50.869Z,22.1
2023-02-05T07:53:29.570Z,21.6
2023-02-05T07:59:21.958Z,22.2
2023-02-05T08:04:59.593Z,22.6
2023-02-05T08:10:38.417Z,21.8
2023-02-05T08:16:23.829Z,22
2023-02-05T08:22:01.717Z,22.5
2023-02-05T08:27:40.111Z,22.1
2023-02-05T08:33:18.124Z,21.7
2023-02-05T08:38:25.184Z,22.4
2023-02-05T08:44:03.173Z,22.8
2023-02-05T08:49:54.993Z,21.8
2023-02-05T08:55:32.878Z,22.1
2023-02-05T09:01:11.916Z,22.7
2023-02-05T09:25:21.713Z,20.9
2023-02-05T09:31:00.462Z,22.1
2023-02-05T09:36:38.383Z,23
2023-02-05T09:43:21.562Z,22.2
2023-02-05T09:49:00.565Z,22.1
2023-02-05T09:54:39.575Z,22.8
2023-02-05T10:00:25.702Z,22.3
2023-02-05T10:06:03.993Z,21.9
2023-02-05T10:11:25.445Z,22.8
2023-02-05T10:17:04.105Z,22.8
2023-02-05T10:22:42.085Z,22.2
2023-02-05T10:28:20.352Z,23.2
2023-02-05T10:33:59.705Z,23.5
2023-02-05T10:39:22.296Z,22.4
2023-02-05T10:44:59.507Z,22.5
2023-02-05T10:50:41.610Z,23
2023-02-05T10:56:19.493Z,22.4
2023-02-05T11:01:57.456Z,22
2023-02-05T11:07:35.880Z,22.4
2023-02-05T11:12:59.910Z,21.5
2023-02-05T11:18:38.201Z,22.4
2023-02-05T11:24:16.574Z,22.6
2023-02-05T11:29:55.068Z,21.8
2023-02-05T11:35:57.841Z,21.9
2023-02-05T11:41:21.148Z,22.4
2023-02-05T11:47:00.161Z,21.8
2023-02-05T11:52:22.325Z,21.8
2023-02-05T11:58:03.334Z,22.3
2023-02-05T12:03:50.759Z,22.1
2023-02-05T12:09:27.473Z,21.4
2023-02-05T12:15:09.055Z,22.1
2023-02-05T12:20:47.319Z,22.1
2023-02-05T12:26:24.556Z,21.4
2023-02-05T12:31:47.490Z,21.9
2023-02-05T12:37:26.293Z,22.3
2023-02-05T12:43:02.174Z,21.6
2023-02-05T12:48:41.135Z,21.7
2023-02-05T12:54:18.811Z,22.1
2023-02-05T12:59:56.460Z,21.3
2023-02-05T13:05:35.552Z,22.1
2023-02-05T13:11:13.557Z,22.1
2023-02-05T13:16:52.347Z,21.5
2023-02-05T13:22:30.772Z,22.1
2023-02-05T13:28:15.926Z,22
2023-02-05T13:33:58.411Z,21.3
2023-02-05T13:39:40.214Z,22.1
2023-02-05T13:45:18.753Z,22.4
2023-02-05T13:50:58.136Z,21.7
2023-02-05T13:56:36.722Z,22.1
2023-02-05T14:02:00.301Z,22.4
2023-02-05T14:07:37.920Z,21.8
2023-02-05T14:13:27.934Z,21.9
2023-02-05T14:19:06.542Z,22.4
2023-02-05T14:24:28.749Z,21.8
2023-02-05T14:30:10.323Z,21.8
2023-02-05T14:35:46.007Z,22.3
2023-02-05T14:41:08.229Z,21.8
2023-02-05T14:46:52.718Z,20.9
2023-02-05T14:52:31.130Z,21.9
2023-02-05T14:57:53.328Z,22.4
2023-02-05T15:03:19.077Z,21.7
2023-02-05T15:08:41.670Z,21.8
2023-02-05T15:14:19.955Z,22.6
2023-02-05T15:19:58.192Z,22.1
2023-02-05T15:25:27.161Z,21.7
2023-02-05T15:30:50.235Z,22.4
2023-02-05T15:36:28.648Z,22.5
2023-02-05T15:42:06.762Z,22.3
2023-02-05T15:47:44.595Z,22.8
2023-02-05T15:53:22.275Z,22.7
2023-02-05T15:58:44.837Z,22.4
2023-02-05T16:04:23.220Z,22.1
2023-02-05T16:09:46.152Z,21.9
2023-02-05T16:15:24.968Z,21.5
2023-02-05T16:20:47.690Z,20.6
2023-02-05T16:26:10.833Z,20.2
2023-02-05T16:32:02.013Z,20
2023-02-05T16:37:39.696Z,19.8
2023-02-05T16:43:03.238Z,21.3
2023-02-05T16:48:41.285Z,22.6
2023-02-05T16:54:19.635Z,23.4
2023-02-05T16:59:42.387Z,24
2023-02-05T17:05:06.308Z,24.6
2023-02-05T17:10:28.921Z,25.1
2023-02-05T17:16:07.784Z,25
2023-02-05T17:21:46.160Z,25.1
2023-02-05T17:27:08.421Z,25.4
2023-02-05T17:32:47.376Z,25
2023-02-05T17:38:28.566Z,25.4
2023-02-05T17:44:09.266Z,26.4
2023-02-05T17:49:47.952Z,27.6
2023-02-05T17:54:55.436Z,28.4
2023-02-05T18:00:17.413Z,28.3
2023-02-05T18:05:56.542Z,28.1
2023-02-05T18:11:19.609Z,28.4
2023-02-05T18:16:42.253Z,28.9
2023-02-05T18:22:07.491Z,28.4
2023-02-05T18:27:44.126Z,27.8
2023-02-05T18:33:10.374Z,27.4
2023-02-05T18:38:50.220Z,26.6
2023-02-05T18:44:13.019Z,26.6
2023-02-05T18:49:50.914Z,26.1
2023-02-05T18:55:16.327Z,26.3
2023-02-05T19:00:39.286Z,25.8
2023-02-05T19:06:17.653Z,26.3
2023-02-05T19:11:55.701Z,25.9
2023-02-05T19:17:35.725Z,25.9
2023-02-05T19:23:15.220Z,25.9
2023-02-05T19:28:53.093Z,25.7
2023-02-05T19:34:32.614Z,25.4
2023-02-05T19:40:10.369Z,25.1
2023-02-05T19:45:48.422Z,25.8
2023-02-05T19:51:11.813Z,26
2023-02-05T19:56:35.604Z,25.6
2023-02-05T20:01:59.127Z,25.3
2023-02-05T20:07:39.067Z,24.9
2023-02-05T20:13:18.485Z,24.4
2023-02-05T20:18:55.835Z,24.6
2023-02-05T20:24:48.777Z,24.2
2023-02-05T20:30:27.053Z,24.3
2023-02-05T20:36:05.867Z,24.5
2023-02-05T20:41:44.597Z,24.6
2023-02-05T20:47:07.454Z,24.5
2023-02-05T20:52:59.691Z,24
2023-02-05T20:58:38.359Z,23.4
2023-02-05T21:04:16.462Z,23.1
2023-02-05T21:09:55.941Z,22.8
2023-02-05T21:15:33.991Z,22.8
2023-02-05T21:20:41.436Z,22.6
2023-02-05T21:26:20.754Z,22.2
2023-02-05T21:31:44.560Z,21.6
2023-02-05T21:37:21.824Z,21.2
2023-02-05T21:42:56.310Z,21.5
2023-02-05T21:48:34.963Z,22.2
2023-02-05T21:53:57.426Z,21.8
2023-02-05T21:59:35.268Z,21.5
2023-02-05T22:09:52.527Z,21.6
2023-02-05T22:15:30.434Z,22.4
2023-02-05T22:21:09.082Z,21.6
2023-02-05T22:26:47.417Z,21.3
2023-02-05T22:32:26.265Z,21.8
2023-02-05T22:37:49.848Z,22.9
2023-02-05T22:43:27.595Z,23.1
2023-02-05T22:49:06.159Z,22.3
2023-02-05T22:54:28.379Z,22.1
2023-02-05T23:00:09.925Z,22.7
2023-02-05T23:05:32.479Z,22.5
2023-02-05T23:10:58.070Z,22
2023-02-05T23:16:35.391Z,22.6
2023-02-05T23:22:13.135Z,22.7
2023-02-05T23:27:51.672Z,21.9
2023-02-05T23:33:14.675Z,22.2
2023-02-05T23:38:53.208Z,22.8
2023-02-05T23:44:31.267Z,22.6
2023-02-05T23:50:08.600Z,22.1
2023-02-05T23:55:46.569Z,22.7
